Time;durP1;ratioP1;P1;durP2;ratioP2;P2;SDS_P1;SDS_P2;PMS_P1;PMS_P2;Temp;Humidity;BMP_temperature;BMP_pressure;BME280_temperature;BME280_humidity;BME280_pressure;Samples;Min_cycle;Max_cycle;Signal;HPM_P1;HPM_P2
2023/01/25 00:02:47;;;;;;;8.80;5.90;;;;;;;4.53;70.34;100973.93;232103;1212;645045;-67
2023/01/25 00:08:42;;;;;;;;;;;;;;;;;;;;;
2023/01/25 00:15:01;;;;;;;17.40;12.10;;;;;;;4.48;70.11;100969.91;234678;1193;138522;-67
2023/01/25 00:20:44;;;;;;;;;;;;;;;;;;;;;
2023/01/25 00:28:09;;;;;;;10.50;8.30;;;;;;;4.37;70.37;100973.84;234689;1193;138770;-66
2023/01/25 00:52:53;;;;;;;6.70;4.80;;;;;;;4.43;70.26;100960.10;236938;1193;138995;-67
2023/01/25 00:58:39;;;;;;;5.80;4.70;;;;;;;4.38;69.50;100949.94;238780;1183;138894;-68
2023/01/25 01:10:38;;;;;;;6.30;4.30;;;;;;;4.16;69.92;100941.27;238716;1184;138374;-67
2023/01/25 01:16:38;;;;;;;;;;;;;;;;;;;;;
2023/01/25 01:23:15;;;;;;;4.40;3.70;;;;;;;4.02;70.28;100925.73;239392;1180;139050;-67
2023/01/25 01:41:57;;;;;;;6.10;4.60;;;;;;;4.11;69.96;100894.05;239454;1180;139413;-67
2023/01/25 02:01:48;;;;;;;6.50;4.10;;;;;;;4.17;69.61;100871.72;239303;1181;139120;-65
2023/01/25 02:15:36;;;;;;;6.10;4.40;;;;;;;4.01;69.76;100853.20;238973;1180;139317;-70
2023/01/25 02:21:15;;;;;;;6.50;4.30;;;;;;;3.95;69.87;100857.45;239009;1180;140860;-69
2023/01/25 02:27:56;;;;;;;6.70;4.30;;;;;;;4.05;69.95;100854.58;239292;1180;138590;-67
2023/01/25 02:34:00;;;;;;;;;;;;;;;;;;;;;
2023/01/25 02:39:54;;;;;;;6.80;4.70;;;;;;;4.19;70.14;100859.94;239135;1180;138915;-68
2023/01/25 02:45:50;;;;;;;8.30;5.10;;;;;;;4.13;70.39;100860.85;239178;1183;138514;-68
2023/01/25 03:03:04;;;;;;;;;;;;;;;;;;;;;
2023/01/25 03:09:28;;;;;;;11.50;8.00;;;;;;;4.07;70.76;100854.05;234082;1202;139973;-67
2023/01/25 03:15:54;;;;;;;9.30;7.30;;;;;;;3.99;70.69;100848.46;234047;1198;139632;-67
2023/01/25 03:22:19;;;;;;;9.50;7.10;;;;;;;3.98;71.22;100851.81;234016;1200;138596;-67
2023/01/25 03:28:09;;;;;;;8.40;6.60;;;;;;;4.01;71.09;100852.50;234113;1198;141260;-67
2023/01/25 03:33:36;;;;;;;8.90;6.10;;;;;;;4.07;71.10;100849.48;234624;1194;139986;-67
2023/01/25 03:39:21;;;;;;;6.80;5.20;;;;;;;4.10;71.11;100845.59;234607;1195;139309;-67
2023/01/25 03:45:36;;;;;;;6.30;5.10;;;;;;;4.11;70.84;100839.79;234682;1194;138438;-67
2023/01/25 03:52:01;;;;;;;6.10;4.90;;;;;;;4.07;71.11;100831.02;234621;1195;139013;-65
2023/01/25 03:58:26;;;;;;;7.90;5.40;;;;;;;4.04;70.77;100829.11;234544;1195;138524;-66
2023/01/25 04:04:51;;;;;;;6.80;5.40;;;;;;;3.99;70.70;100828.10;234500;1193;140170;-67
2023/01/25 04:11:05;;;;;;;7.60;5.40;;;;;;;3.96;70.99;100813.73;234495;1195;139662;-66
2023/01/25 04:23:32;;;;;;;8.20;5.80;;;;;;;4.05;71.15;100804.52;234671;1197;139815;-65
2023/01/25 04:29:39;;;;;;;;;;;;;;;;;;;;;
2023/01/25 04:35:56;;;;;;;9.40;7.00;;;;;;;4.08;70.78;100791.88;234585;1193;138815;-64
2023/01/25 04:42:21;;;;;;;9.70;7.20;;;;;;;4.09;70.97;100795.38;234567;1195;138763;-65
2023/01/25 04:54:40;;;;;;;13.10;8.10;;;;;;;4.10;71.10;100795.36;234490;1194;138855;-65
2023/01/25 05:00:10;;;;;;;10.10;7.30;;;;;;;4.04;71.14;100791.18;234613;1193;139978;-67
2023/01/25 05:06:22;;;;;;;14.00;8.40;;;;;;;3.98;71.14;100779.47;234705;1193;139249;-67
2023/01/25 05:12:47;;;;;;;11.90;7.90;;;;;;;3.91;71.06;100783.72;234793;1192;140481;-67
2023/01/25 05:19:02;;;;;;;78.60;49.30;;;;;;;4.07;72.63;100780.27;234500;1192;139956;-66
2023/01/25 05:24:49;;;;;;;11.70;7.70;;;;;;;4.22;71.43;100771.38;234713;1193;140338;-65
2023/01/25 05:30:44;;;;;;;9.00;6.10;;;;;;;4.20;70.41;100771.55;234695;1193;139876;-66
2023/01/25 05:42:37;;;;;;;;;;;;;;;;;;;;;
2023/01/25 05:49:01;;;;;;;7.10;5.30;;;;;;;4.04;70.54;100763.09;234852;1193;139107;-66
2023/01/25 05:55:10;;;;;;;;;;;;;;;;;;;;;
2023/01/25 06:01:40;;;;;;;6.80;5.10;;;;;;;3.85;70.70;100769.55;234855;1193;139596;-68
2023/01/25 06:08:14;;;;;;;10.70;6.30;;;;;;;3.80;71.04;100774.31;234807;1194;139220;-67
2023/01/25 06:14:38;;;;;;;8.70;6.20;;;;;;;3.87;71.59;100781.30;235053;1193;139047;-66
2023/01/25 06:20:17;;;;;;;7.90;5.80;;;;;;;3.92;71.04;100771.41;234842;1193;139996;-66
2023/01/25 06:26:48;;;;;;;9.40;7.10;;;;;;;3.94;71.32;100771.23;234868;1193;139623;-64
2023/01/25 06:32:37;;;;;;;11.10;7.10;;;;;;;4.05;71.20;100771.51;234840;1194;139463;-64
2023/01/25 06:39:07;;;;;;;11.50;7.60;;;;;;;4.06;70.75;100758.16;234873;1193;139157;-65
2023/01/25 06:46:11;;;;;;;15.80;8.80;;;;;;;4.04;70.74;100754.66;234903;1195;139872;-67
2023/01/25 06:52:10;;;;;;;105.50;72.40;;;;;;;3.99;70.97;100753.29;234259;1193;139714;-66
2023/01/25 07:05:22;;;;;;;;;;;;;;;;;;;;;
2023/01/25 07:11:49;;;;;;;;;;;;;;;;;;;;;
2023/01/25 07:17:54;;;;;;;8.40;5.20;;;;;;;3.88;70.33;100740.91;234482;1195;139542;-64
2023/01/25 07:59:12;;;;;;;;;;;;;;;;;;;;;
2023/01/25 08:04:37;;;;;;;;;;;;;;;;;;;;;
2023/01/25 08:10:24;;;;;;;10.80;5.10;;;;;;;3.91;69.85;100705.23;234519;1193;223263;-68
2023/01/25 08:16:02;;;;;;;7.30;4.50;;;;;;;3.89;70.01;100701.21;234748;1193;139032;-64
2023/01/25 08:22:07;;;;;;;7.00;4.30;;;;;;;3.93;70.21;100698.20;234697;1195;140133;-67
2023/01/25 08:28:21;;;;;;;;;;;;;;;;;;;;;
2023/01/25 08:33:24;;;;;;;7.00;4.50;;;;;;;4.13;69.62;100681.69;234568;1195;139428;-67
2023/01/25 08:38:51;;;;;;;8.30;5.00;;;;;;;4.18;69.71;100677.27;234772;1193;138985;-65
2023/01/25 08:44:49;;;;;;;7.10;4.80;;;;;;;4.19;70.04;100680.77;234675;1195;138938;-69
2023/01/25 08:51:38;;;;;;;7.70;4.60;;;;;;;4.27;70.11;100673.30;234780;1196;139617;-71
2023/01/25 08:57:39;;;;;;;7.70;5.50;;;;;;;4.38;70.27;100670.73;234682;1195;139416;-68
2023/01/25 09:04:04;;;;;;;11.70;5.90;;;;;;;4.43;70.17;100675.58;234804;1193;138860;-68
2023/01/25 09:10:08;;;;;;;;;;;;;;;;;;;;;
2023/01/25 09:17:00;;;;;;;237.40;146.30;;;;;;;4.49;70.78;100667.28;234224;1196;139177;-67
2023/01/25 09:22:30;;;;;;;;;;;;;;;;;;;;;
2023/01/25 09:28:00;;;;;;;10.40;7.00;;;;;;;4.69;70.23;100648.06;234551;1197;139745;-66
2023/01/25 09:34:08;;;;;;;9.10;6.70;;;;;;;4.77;70.02;100642.52;234880;1197;139752;-67
2023/01/25 09:40:02;;;;;;;16.00;7.70;;;;;;;4.84;70.07;100642.42;234525;1195;139384;-68
2023/01/25 09:45:56;;;;;;;15.20;8.60;;;;;;;4.88;69.88;100634.83;234779;1193;139671;-69
2023/01/25 09:51:59;;;;;;;11.90;8.20;;;;;;;4.87;69.64;100624.45;234582;1193;139724;-70
2023/01/25 09:57:55;;;;;;;;;;;;;;;;;;;;;
2023/01/25 10:04:26;;;;;;;11.40;7.90;;;;;;;4.90;69.71;100605.95;234726;1193;139739;-69
2023/01/25 10:10:21;;;;;;;11.20;7.30;;;;;;;4.92;69.18;100583.58;234505;1193;139290;-68
2023/01/25 10:17:11;;;;;;;7.50;5.40;;;;;;;4.96;69.01;100578.25;234708;1193;138971;-69
2023/01/25 10:22:59;;;;;;;5.90;4.60;;;;;;;5.01;68.69;100569.92;233932;1200;140058;-68
2023/01/25 10:28:48;;;;;;;6.90;5.00;;;;;;;4.98;68.68;100555.72;233944;1202;139597;-69
2023/01/25 10:34:29;;;;;;;;;;;;;;;;;;;;;
2023/01/25 10:41:01;;;;;;;11.00;7.60;;;;;;;5.15;68.90;100546.66;234771;1195;139493;-69
2023/01/25 10:47:56;;;;;;;;;;;;;;;;;;;;;
2023/01/25 10:54:28;;;;;;;17.20;11.00;;;;;;;5.29;68.45;100538.69;234700;1193;140184;-68
2023/01/25 11:00:36;;;;;;;;;;;;;;;;;;;;;
2023/01/25 11:07:14;;;;;;;8.00;5.90;;;;;;;5.33;68.01;100531.41;233898;1198;140155;-69
2023/01/25 11:12:36;;;;;;;;;;;;;;;;;;;;;
2023/01/25 11:18:24;;;;;;;10.00;6.30;;;;;;;5.26;66.69;100503.39;234635;1196;138665;-68
2023/01/25 11:24:22;;;;;;;;;;;;;;;;;;;;;
2023/01/25 11:30:47;;;;;;;15.40;8.90;;;;;;;5.25;67.63;100484.03;234509;1196;138853;-69
2023/01/25 11:36:59;;;;;;;15.80;11.60;;;;;;;5.23;67.34;100468.76;234626;1193;139348;-67
2023/01/25 11:43:23;;;;;;;;;;;;;;;;;;;;;
2023/01/25 11:49:41;;;;;;;10.30;6.40;;;;;;;5.24;67.03;100450.27;234835;1193;139076;-67
2023/01/25 12:04:51;;;;;;;;;;;;;;;;;;;;;
2023/01/25 12:12:24;;;;;;;6.30;4.40;;;;;;;5.52;64.47;100429.00;233343;1203;139135;-66
2023/01/25 12:18:59;;;;;;;8.30;4.70;;;;;;;5.52;63.53;100410.16;233737;1200;137970;-66
2023/01/25 12:24:58;;;;;;;;;;;;;;;;;;;;;
2023/01/25 12:32:27;;;;;;;;;;;;;;;;;;;;;
2023/01/25 12:38:15;;;;;;;11.80;5.90;;;;;;;5.38;63.55;100379.45;233633;1198;138447;-66
2023/01/25 12:44:55;;;;;;;8.20;4.90;;;;;;;5.30;63.52;100371.34;234095;1196;139218;-67
2023/01/25 13:07:27;;;;;;;9.20;6.00;;;;;;;5.29;63.18;100353.06;232800;1207;645464;-68
2023/01/25 13:21:47;;;;;;;5.50;4.30;;;;;;;5.19;62.97;100348.32;234052;1199;246022;-68
2023/01/25 13:33:44;;;;;;;;;;;;;;;;;;;;;
2023/01/25 13:47:44;;;;;;;9.60;5.10;;;;;;;5.12;62.56;100319.77;232961;1203;138886;-68
2023/01/25 13:54:42;;;;;;;7.20;4.80;;;;;;;5.17;62.30;100310.71;233248;1203;138917;-68
2023/01/25 14:46:14;;;;;;;7.20;4.80;;;;;;;4.95;61.61;100271.40;232378;1212;636717;-68
2023/01/25 14:51:55;;;;;;;6.20;4.40;;;;;;;4.93;60.71;100264.20;235032;1193;140070;-70
2023/01/25 14:57:37;;;;;;;;;;;;;;;;;;;;;
2023/01/25 15:03:52;;;;;;;;;;;;;;;;;;;;;
2023/01/25 15:10:34;;;;;;;8.20;5.30;;;;;;;4.79;61.13;100256.05;234579;1193;141219;-71
2023/01/25 15:16:59;;;;;;;10.80;6.20;;;;;;;4.74;61.16;100252.80;234923;1193;139973;-67
2023/01/25 15:23:23;;;;;;;8.50;5.30;;;;;;;4.74;61.28;100245.94;234969;1194;138703;-69
2023/01/25 15:29:55;;;;;;;9.60;5.90;;;;;;;4.72;60.83;100237.89;235019;1193;138679;-70
2023/01/25 15:35:11;;;;;;;;;;;;;;;;;;;;;
2023/01/25 15:41:32;;;;;;;6.30;4.60;;;;;;;4.66;61.20;100223.42;234941;1192;138679;-71
2023/01/25 15:48:00;;;;;;;10.20;7.40;;;;;;;4.66;61.95;100227.27;235021;1193;139064;-69
2023/01/25 15:54:24;;;;;;;10.40;6.90;;;;;;;4.67;60.99;100221.98;235017;1193;139361;-69
2023/01/25 16:00:49;;;;;;;11.00;6.90;;;;;;;4.64;60.86;100212.55;234755;1193;139196;-69
2023/01/25 16:07:13;;;;;;;10.20;6.90;;;;;;;4.55;61.64;100210.09;234739;1193;138464;-69
2023/01/25 16:12:38;;;;;;;9.40;6.30;;;;;;;4.51;61.71;100205.77;234044;1198;139515;-68
2023/01/25 16:18:50;;;;;;;10.40;7.50;;;;;;;4.52;61.62;100199.08;234501;1193;138910;-70
2023/01/25 16:24:59;;;;;;;;;;;;;;;;;;;;;
2023/01/25 16:31:06;;;;;;;12.50;8.00;;;;;;;4.44;61.85;100185.35;234770;1193;138868;-70
2023/01/25 16:36:53;;;;;;;;;;;;;;;;;;;;;
2023/01/25 16:42:38;;;;;;;9.60;7.00;;;;;;;4.44;61.90;100171.98;234779;1192;139569;-68
2023/01/25 16:48:38;;;;;;;12.70;7.70;;;;;;;4.45;61.79;100165.80;234618;1193;139523;-69
2023/01/25 16:54:28;;;;;;;11.20;8.00;;;;;;;4.42;61.89;100157.61;234603;1198;139260;-69
2023/01/25 17:00:23;;;;;;;31.30;20.60;;;;;;;4.51;62.81;100149.53;234875;1193;139304;-70
2023/01/25 17:06:49;;;;;;;15.00;9.70;;;;;;;4.62;62.50;100141.77;234555;1193;139173;-70
2023/01/25 17:12:16;;;;;;;16.80;10.90;;;;;;;4.50;62.58;100131.98;234605;1196;139332;-70
2023/01/25 17:17:56;;;;;;;;;;;;;;;;;;;;;
2023/01/25 17:24:09;;;;;;;17.30;10.70;;;;;;;4.42;62.60;100122.66;234813;1193;139430;-70
2023/01/25 17:36:57;;;;;;;10.80;8.00;;;;;;;4.43;63.00;100112.26;234167;1204;139166;-70
2023/01/25 17:46:33;;;;;;;10.00;6.60;;;;;;;4.51;63.07;100105.80;232032;1208;645926;-55
2023/01/25 17:51:39;;;;;;;9.40;7.00;;;;;;;4.47;61.85;100093.92;234228;1199;138672;-74
2023/01/25 17:57:54;;;;;;;;;;;;;;;;;;;;;
2023/01/25 18:03:51;;;;;;;;;;;;;;;;;;;;;
2023/01/25 18:10:17;;;;;;;11.60;7.40;;;;;;;4.50;61.10;100081.21;234220;1199;139521;-73
2023/01/25 18:15:59;;;;;;;14.30;7.90;;;;;;;4.50;60.88;100082.60;234203;1199;138992;-72
2023/01/25 18:22:05;;;;;;;63.90;33.50;;;;;;;4.52;61.85;100066.75;234372;1200;138858;-72
2023/01/25 18:28:22;;;;;;;15.40;8.50;;;;;;;4.51;61.04;100062.56;234194;1203;139185;-72
2023/01/25 18:34:18;;;;;;;15.20;9.20;;;;;;;4.41;60.44;100058.35;234282;1200;138128;-72
2023/01/25 18:40:50;;;;;;;;;;;;;;;;;;;;;
2023/01/25 18:47:41;;;;;;;23.00;14.60;;;;;;;4.64;62.88;100037.68;234889;1195;138003;-68
2023/01/25 18:55:38;;;;;;;44.40;26.30;;;;;;;4.69;60.66;100032.30;234570;1196;138381;-72
2023/01/25 19:08:53;;;;;;;15.20;9.70;;;;;;;5.63;58.54;100015.60;234444;1193;138667;-72
2023/01/25 19:15:01;;;;;;;19.20;10.80;;;;;;;5.36;58.60;100012.25;234953;1196;138149;-73
2023/01/25 19:21:42;;;;;;;19.10;11.80;;;;;;;5.15;58.93;100015.23;234423;1199;138708;-73
2023/01/25 19:27:43;;;;;;;;;;;;;;;;;;;;;
2023/01/25 19:34:34;;;;;;;96.40;60.20;;;;;;;4.73;61.18;99997.23;235002;1193;138599;-71
2023/01/25 19:40:32;;;;;;;;;;;;;;;5.32;59.36;99992.46;235014;1193;138585;-71
2023/01/25 19:46:53;;;;;;;27.70;17.00;;;;;;;4.93;58.85;99985.70;235150;1193;124201;-75
2023/01/25 19:52:30;;;;;;;;;;;;;;;;;;;;;
2023/01/25 20:01:35;;;;;;;31.70;20.30;;;;;;;4.42;59.51;99980.34;230981;1209;635931;-77
2023/01/25 20:06:39;;;;;;;29.40;19.40;;;;;;;4.28;60.09;99975.72;234999;1196;137796;-74
2023/01/25 20:11:43;;;;;;;33.30;19.80;;;;;;;4.21;60.33;99977.80;235139;1196;138249;-73
2023/01/25 20:16:51;;;;;;;30.30;19.60;;;;;;;4.18;60.48;99972.59;234934;1197;138821;-73
2023/01/25 20:21:54;;;;;;;26.10;17.50;;;;;;;4.14;60.56;99966.89;234820;1196;138585;-74
2023/01/25 20:27:00;;;;;;;29.30;18.90;;;;;;;4.20;60.49;99962.73;234072;1196;138121;-76
2023/01/25 20:32:06;;;;;;;26.10;17.10;;;;;;;4.13;60.68;99960.95;235480;1193;138296;-76
2023/01/25 20:37:10;;;;;;;25.00;16.80;;;;;;;4.04;61.10;99955.52;235568;1193;138581;-74
2023/01/25 20:42:14;;;;;;;26.40;17.30;;;;;;;3.98;61.12;99950.90;234558;1193;138706;-74
2023/01/25 20:47:17;;;;;;;24.60;16.70;;;;;;;4.00;61.53;99946.11;235500;1192;137946;-74
2023/01/25 20:52:22;;;;;;;24.20;16.40;;;;;;;4.13;61.20;99943.39;235393;1196;138677;-74
2023/01/25 20:57:26;;;;;;;24.20;15.50;;;;;;;4.02;61.64;99937.64;234959;1194;138427;-75
2023/01/25 21:02:30;;;;;;;24.10;15.30;;;;;;;3.92;61.78;99942.24;235468;1192;138405;-76
2023/01/25 21:07:34;;;;;;;22.10;14.30;;;;;;;3.85;62.21;99940.80;235499;1195;138007;-76
2023/01/25 21:12:38;;;;;;;22.10;14.40;;;;;;;3.80;62.41;99936.52;232936;1196;138972;-75
2023/01/25 21:17:42;;;;;;;23.90;15.60;;;;;;;3.79;62.64;99930.91;235208;1194;138094;-73
2023/01/25 21:22:45;;;;;;;18.60;12.00;;;;;;;3.73;62.48;99928.74;235391;1193;138985;-74
2023/01/25 21:27:49;;;;;;;24.20;14.00;;;;;;;3.73;62.75;99921.56;235509;1193;138551;-77
2023/01/25 21:32:54;;;;;;;20.20;12.70;;;;;;;3.70;62.63;99922.86;235115;1196;138813;-76
2023/01/25 21:37:57;;;;;;;20.20;13.40;;;;;;;3.73;62.64;99919.45;235553;1195;138285;-77
2023/01/25 21:43:01;;;;;;;19.70;13.10;;;;;;;3.72;62.78;99917.70;235417;1192;138452;-76
2023/01/25 21:48:04;;;;;;;20.50;12.10;;;;;;;3.66;62.42;99911.69;235501;1193;137889;-77
2023/01/25 21:53:08;;;;;;;18.20;12.00;;;;;;;3.64;62.29;99908.74;235435;1194;138233;-78
2023/01/25 21:58:13;;;;;;;21.50;13.00;;;;;;;3.62;62.59;99898.63;235462;1193;138067;-77
2023/01/25 22:03:16;;;;;;;20.80;12.80;;;;;;;3.62;62.40;99892.83;235360;1193;138055;-77
2023/01/25 22:08:19;;;;;;;19.10;12.10;;;;;;;3.57;62.55;99890.45;235359;1193;137991;-76
2023/01/25 22:13:23;;;;;;;20.50;14.20;;;;;;;3.53;62.74;99885.10;235373;1193;137896;-74
2023/01/25 22:18:30;;;;;;;20.50;12.50;;;;;;;3.54;62.81;99886.14;235525;1196;138738;-76
2023/01/25 22:23:37;;;;;;;21.60;13.10;;;;;;;3.52;62.60;99878.63;231732;1193;138521;-76
2023/01/25 22:28:49;;;;;;;19.00;12.30;;;;;;;3.51;62.92;99874.97;234344;1193;139071;-74
2023/01/25 22:33:53;;;;;;;18.70;12.30;;;;;;;3.47;62.52;99860.33;233584;1196;137987;-79
2023/01/25 22:38:59;;;;;;;22.10;14.30;;;;;;;3.47;62.79;99854.52;232643;1193;138470;-77
2023/01/25 22:44:03;;;;;;;20.90;13.40;;;;;;;3.53;62.80;99853.36;235399;1192;138308;-73
2023/01/25 22:49:06;;;;;;;19.70;12.50;;;;;;;3.57;62.52;99853.80;235433;1193;138259;-73
2023/01/25 22:54:10;;;;;;;19.60;12.80;;;;;;;3.54;62.22;99849.30;235417;1193;138608;-74
2023/01/25 22:59:17;;;;;;;19.80;12.80;;;;;;;3.48;62.44;99841.70;235540;1193;138363;-74
2023/01/25 23:04:21;;;;;;;20.90;13.10;;;;;;;3.41;62.50;99836.77;235326;1193;139889;-74
2023/01/25 23:09:24;;;;;;;20.50;12.80;;;;;;;3.40;62.53;99829.59;234664;1193;139029;-73
2023/01/25 23:14:50;;;;;;;16.80;11.00;;;;;;;3.43;62.54;99827.77;235420;1196;138794;-74
2023/01/25 23:19:53;;;;;;;24.10;12.30;;;;;;;3.35;62.23;99821.27;235375;1193;139117;-74
2023/01/25 23:24:57;;;;;;;18.80;12.80;;;;;;;3.30;62.46;99812.07;235709;1193;138618;-74
2023/01/25 23:30:01;;;;;;;20.80;13.00;;;;;;;3.36;62.53;99805.11;235509;1193;247984;-75
2023/01/25 23:35:05;;;;;;;19.90;12.70;;;;;;;3.42;62.54;99807.80;235324;1193;138888;-76
2023/01/25 23:40:10;;;;;;;22.10;12.70;;;;;;;3.42;62.32;99796.41;234002;1193;139754;-79
2023/01/25 23:45:14;;;;;;;19.10;12.00;;;;;;;3.38;62.44;99797.88;234413;1193;139093;-75
2023/01/25 23:57:24;;;;;;;19.30;13.90;;;;;;;3.22;62.27;99784.87;233779;1192;138891;-77
